sensor_id;sensor_type;location;lat;lon;timestamp;pressure;altitude;pressure_sealevel;temperature;humidity
57562;BME280;43397;51.530;5.974;2023-01-27T00:01:08;101995.31;;;8.30;87.97
57562;BME280;43397;51.530;5.974;2023-01-27T00:03:34;101996.88;;;8.20;88.87
57562;BME280;43397;51.530;5.974;2023-01-27T00:06:00;101983.63;;;8.20;88.68
57562;BME280;43397;51.530;5.974;2023-01-27T00:08:26;101994.44;;;8.31;88.12
57562;BME280;43397;51.530;5.974;2023-01-27T00:10:57;101989.03;;;8.71;86.51
57562;BME280;43397;51.530;5.974;2023-01-27T00:13:23;101984.38;;;8.57;87.05
57562;BME280;43397;51.530;5.974;2023-01-27T00:15:48;101985.00;;;8.44;87.93
57562;BME280;43397;51.530;5.974;2023-01-27T00:18:14;101989.66;;;8.56;87.94
57562;BME280;43397;51.530;5.974;2023-01-27T00:20:40;101992.91;;;8.41;88.65
57562;BME280;43397;51.530;5.974;2023-01-27T00:23:09;101991.59;;;8.20;89.14
57562;BME280;43397;51.530;5.974;2023-01-27T00:25:38;102000.00;;;7.99;90.09
57562;BME280;43397;51.530;5.974;2023-01-27T00:28:05;101992.00;;;8.40;88.26
57562;BME280;43397;51.530;5.974;2023-01-27T00:30:30;101997.78;;;8.67;86.97
57562;BME280;43397;51.530;5.974;2023-01-27T00:32:56;101993.47;;;8.72;86.45
57562;BME280;43397;51.530;5.974;2023-01-27T00:35:22;101990.94;;;8.79;85.72
57562;BME280;43397;51.530;5.974;2023-01-27T00:37:48;101993.88;;;8.46;86.72
57562;BME280;43397;51.530;5.974;2023-01-27T00:40:15;101997.41;;;8.02;88.17
57562;BME280;43397;51.530;5.974;2023-01-27T00:42:41;101990.16;;;7.94;90.75
57562;BME280;43397;51.530;5.974;2023-01-27T00:45:09;101989.28;;;7.93;90.20
57562;BME280;43397;51.530;5.974;2023-01-27T00:47:36;101995.47;;;7.94;89.98
57562;BME280;43397;51.530;5.974;2023-01-27T00:50:03;101995.41;;;7.92;90.07
57562;BME280;43397;51.530;5.974;2023-01-27T00:52:29;102002.94;;;8.13;89.66
57562;BME280;43397;51.530;5.974;2023-01-27T00:54:54;101997.09;;;7.87;90.44
57562;BME280;43397;51.530;5.974;2023-01-27T00:57:20;102002.19;;;7.78;90.22
57562;BME280;43397;51.530;5.974;2023-01-27T00:59:46;102000.94;;;7.60;91.40
57562;BME280;43397;51.530;5.974;2023-01-27T01:02:13;101997.59;;;7.71;90.51
57562;BME280;43397;51.530;5.974;2023-01-27T01:04:38;101996.22;;;7.87;90.10
57562;BME280;43397;51.530;5.974;2023-01-27T01:07:04;101999.13;;;7.58;90.35
57562;BME280;43397;51.530;5.974;2023-01-27T01:09:30;102000.75;;;7.53;91.63
57562;BME280;43397;51.530;5.974;2023-01-27T01:11:55;102002.69;;;7.61;90.87
57562;BME280;43397;51.530;5.974;2023-01-27T01:14:21;102000.34;;;7.74;90.53
57562;BME280;43397;51.530;5.974;2023-01-27T01:16:47;102010.69;;;7.63;90.52
57562;BME280;43397;51.530;5.974;2023-01-27T01:19:14;102011.81;;;7.74;90.35
57562;BME280;43397;51.530;5.974;2023-01-27T01:21:40;102016.34;;;7.80;90.43
57562;BME280;43397;51.530;5.974;2023-01-27T01:24:06;102023.41;;;7.81;89.45
57562;BME280;43397;51.530;5.974;2023-01-27T01:26:31;102018.88;;;7.74;90.07
57562;BME280;43397;51.530;5.974;2023-01-27T01:28:57;102016.53;;;7.89;89.32
57562;BME280;43397;51.530;5.974;2023-01-27T01:31:23;102021.31;;;7.66;90.41
57562;BME280;43397;51.530;5.974;2023-01-27T01:33:48;102014.41;;;7.73;89.46
57562;BME280;43397;51.530;5.974;2023-01-27T01:36:17;102024.41;;;7.47;91.17
57562;BME280;43397;51.530;5.974;2023-01-27T01:38:43;102025.44;;;7.53;90.76
57562;BME280;43397;51.530;5.974;2023-01-27T01:41:11;102021.81;;;7.48;91.07
57562;BME280;43397;51.530;5.974;2023-01-27T01:43:37;102031.69;;;7.57;90.85
57562;BME280;43397;51.530;5.974;2023-01-27T01:46:03;102030.97;;;7.64;90.67
57562;BME280;43397;51.530;5.974;2023-01-27T01:48:32;102022.34;;;7.73;89.96
57562;BME280;43397;51.530;5.974;2023-01-27T01:51:02;102035.66;;;7.38;90.00
57562;BME280;43397;51.530;5.974;2023-01-27T01:53:33;102036.41;;;7.69;89.99
57562;BME280;43397;51.530;5.974;2023-01-27T01:56:06;102029.16;;;7.61;89.74
57562;BME280;43397;51.530;5.974;2023-01-27T01:58:34;102039.53;;;7.52;90.35
57562;BME280;43397;51.530;5.974;2023-01-27T02:01:02;102036.66;;;7.07;90.18
57562;BME280;43397;51.530;5.974;2023-01-27T02:03:28;102040.25;;;7.09;90.21
57562;BME280;43397;51.530;5.974;2023-01-27T02:05:54;102041.78;;;6.99;90.91
57562;BME280;43397;51.530;5.974;2023-01-27T02:08:23;102051.28;;;6.92;91.40
57562;BME280;43397;51.530;5.974;2023-01-27T02:10:53;102047.19;;;7.04;90.63
57562;BME280;43397;51.530;5.974;2023-01-27T02:13:19;102045.09;;;6.92;91.30
57562;BME280;43397;51.530;5.974;2023-01-27T02:15:45;102045.47;;;6.72;89.99
57562;BME280;43397;51.530;5.974;2023-01-27T02:18:10;102058.13;;;6.84;89.23
57562;BME280;43397;51.530;5.974;2023-01-27T02:20:40;102037.81;;;6.83;88.70
57562;BME280;43397;51.530;5.974;2023-01-27T02:23:13;102048.50;;;6.86;87.53
57562;BME280;43397;51.530;5.974;2023-01-27T02:25:53;102046.44;;;6.76;86.79
57562;BME280;43397;51.530;5.974;2023-01-27T02:28:21;102053.13;;;6.96;87.53
57562;BME280;43397;51.530;5.974;2023-01-27T02:30:47;102053.22;;;6.66;87.22
57562;BME280;43397;51.530;5.974;2023-01-27T02:33:14;102054.91;;;6.96;86.80
57562;BME280;43397;51.530;5.974;2023-01-27T02:35:43;102054.06;;;6.97;86.99
57562;BME280;43397;51.530;5.974;2023-01-27T02:38:12;102052.19;;;6.94;86.72
57562;BME280;43397;51.530;5.974;2023-01-27T02:40:40;102052.41;;;7.02;86.62
57562;BME280;43397;51.530;5.974;2023-01-27T02:43:08;102048.13;;;7.07;86.39
57562;BME280;43397;51.530;5.974;2023-01-27T02:45:33;102051.91;;;6.84;87.16
57562;BME280;43397;51.530;5.974;2023-01-27T02:47:59;102046.63;;;6.84;88.15
57562;BME280;43397;51.530;5.974;2023-01-27T02:50:25;102052.25;;;6.63;87.40
57562;BME280;43397;51.530;5.974;2023-01-27T02:52:51;102044.25;;;6.59;88.12
57562;BME280;43397;51.530;5.974;2023-01-27T02:55:17;102046.94;;;6.61;89.15
57562;BME280;43397;51.530;5.974;2023-01-27T02:57:43;102049.44;;;6.88;87.72
57562;BME280;43397;51.530;5.974;2023-01-27T03:00:11;102045.41;;;7.04;87.39
57562;BME280;43397;51.530;5.974;2023-01-27T03:02:37;102050.50;;;6.96;88.79
57562;BME280;43397;51.530;5.974;2023-01-27T03:05:03;102050.56;;;6.65;88.42
57562;BME280;43397;51.530;5.974;2023-01-27T03:07:29;102058.06;;;6.49;89.00
57562;BME280;43397;51.530;5.974;2023-01-27T03:09:54;102057.53;;;6.63;89.72
57562;BME280;43397;51.530;5.974;2023-01-27T03:12:20;102059.53;;;6.71;88.77
57562;BME280;43397;51.530;5.974;2023-01-27T03:14:46;102061.59;;;6.82;89.33
57562;BME280;43397;51.530;5.974;2023-01-27T03:17:13;102059.66;;;6.44;89.83
57562;BME280;43397;51.530;5.974;2023-01-27T03:19:39;102050.03;;;6.46;89.99
57562;BME280;43397;51.530;5.974;2023-01-27T03:22:04;102050.25;;;6.87;88.56
57562;BME280;43397;51.530;5.974;2023-01-27T03:24:30;102045.88;;;6.88;89.06
57562;BME280;43397;51.530;5.974;2023-01-27T03:26:56;102051.44;;;6.98;89.50
57562;BME280;43397;51.530;5.974;2023-01-27T03:29:21;102055.84;;;6.65;90.06
57562;BME280;43397;51.530;5.974;2023-01-27T03:31:47;102052.84;;;6.52;90.41
57562;BME280;43397;51.530;5.974;2023-01-27T03:34:14;102061.03;;;6.62;91.51
57562;BME280;43397;51.530;5.974;2023-01-27T03:36:40;102058.16;;;6.86;90.57
57562;BME280;43397;51.530;5.974;2023-01-27T03:39:05;102060.06;;;6.91;90.11
57562;BME280;43397;51.530;5.974;2023-01-27T03:41:31;102063.53;;;6.57;90.81
57562;BME280;43397;51.530;5.974;2023-01-27T03:43:57;102064.66;;;6.65;91.22
57562;BME280;43397;51.530;5.974;2023-01-27T03:46:22;102066.72;;;6.77;91.27
57562;BME280;43397;51.530;5.974;2023-01-27T03:48:50;102077.78;;;6.62;91.87
57562;BME280;43397;51.530;5.974;2023-01-27T03:51:19;102090.78;;;6.88;92.05
57562;BME280;43397;51.530;5.974;2023-01-27T03:53:45;102086.63;;;6.96;91.28
57562;BME280;43397;51.530;5.974;2023-01-27T03:56:11;102085.44;;;6.53;91.81
57562;BME280;43397;51.530;5.974;2023-01-27T03:58:37;102085.09;;;6.72;92.02
57562;BME280;43397;51.530;5.974;2023-01-27T04:01:05;102093.28;;;6.50;92.44
57562;BME280;43397;51.530;5.974;2023-01-27T04:03:33;102091.34;;;6.44;92.92
57562;BME280;43397;51.530;5.974;2023-01-27T04:06:02;102089.34;;;6.35;93.02
57562;BME280;43397;51.530;5.974;2023-01-27T04:08:29;102095.47;;;6.65;92.95
57562;BME280;43397;51.530;5.974;2023-01-27T04:11:01;102095.66;;;6.10;94.31
57562;BME280;43397;51.530;5.974;2023-01-27T04:13:26;102103.16;;;6.25;94.13
57562;BME280;43397;51.530;5.974;2023-01-27T04:15:53;102107.41;;;6.84;91.98
57562;BME280;43397;51.530;5.974;2023-01-27T04:18:19;102106.31;;;6.13;94.14
57562;BME280;43397;51.530;5.974;2023-01-27T04:20:44;102104.97;;;6.58;93.03
57562;BME280;43397;51.530;5.974;2023-01-27T04:23:10;102108.81;;;6.39;92.61
57562;BME280;43397;51.530;5.974;2023-01-27T04:25:37;102099.50;;;6.52;92.17
57562;BME280;43397;51.530;5.974;2023-01-27T04:28:03;102102.28;;;6.56;92.15
57562;BME280;43397;51.530;5.974;2023-01-27T04:30:29;102100.22;;;6.78;91.85
57562;BME280;43397;51.530;5.974;2023-01-27T04:32:54;102103.84;;;6.50;92.84
57562;BME280;43397;51.530;5.974;2023-01-27T04:35:20;102106.72;;;6.27;93.88
57562;BME280;43397;51.530;5.974;2023-01-27T04:37:45;102118.19;;;6.59;94.02
57562;BME280;43397;51.530;5.974;2023-01-27T04:40:12;102117.78;;;6.76;93.06
57562;BME280;43397;51.530;5.974;2023-01-27T04:42:39;102109.13;;;6.20;95.76
57562;BME280;43397;51.530;5.974;2023-01-27T04:45:06;102109.69;;;6.38;96.69
57562;BME280;43397;51.530;5.974;2023-01-27T04:47:32;102112.00;;;6.27;97.18
57562;BME280;43397;51.530;5.974;2023-01-27T04:49:57;102121.56;;;6.24;98.60
57562;BME280;43397;51.530;5.974;2023-01-27T04:52:24;102120.78;;;6.56;96.83
57562;BME280;43397;51.530;5.974;2023-01-27T04:54:49;102112.34;;;6.70;95.69
57562;BME280;43397;51.530;5.974;2023-01-27T04:57:15;102119.06;;;6.28;97.83
57562;BME280;43397;51.530;5.974;2023-01-27T04:59:42;102125.78;;;6.17;98.70
57562;BME280;43397;51.530;5.974;2023-01-27T05:02:08;102117.66;;;6.11;99.04
57562;BME280;43397;51.530;5.974;2023-01-27T05:04:33;102125.47;;;6.36;98.21
57562;BME280;43397;51.530;5.974;2023-01-27T05:06:59;102129.34;;;6.19;98.78
57562;BME280;43397;51.530;5.974;2023-01-27T05:09:25;102126.84;;;6.84;96.29
57562;BME280;43397;51.530;5.974;2023-01-27T05:11:51;102122.66;;;6.61;95.55
57562;BME280;43397;51.530;5.974;2023-01-27T05:14:17;102128.44;;;6.79;95.36
57562;BME280;43397;51.530;5.974;2023-01-27T05:16:44;102121.28;;;6.75;94.86
57562;BME280;43397;51.530;5.974;2023-01-27T05:19:09;102125.69;;;6.44;97.05
57562;BME280;43397;51.530;5.974;2023-01-27T05:21:35;102128.94;;;6.64;96.20
57562;BME280;43397;51.530;5.974;2023-01-27T05:24:01;102119.50;;;6.44;97.06
57562;BME280;43397;51.530;5.974;2023-01-27T05:26:27;102117.88;;;6.49;96.60
57562;BME280;43397;51.530;5.974;2023-01-27T05:28:55;102123.50;;;6.29;98.16
57562;BME280;43397;51.530;5.974;2023-01-27T05:31:23;102128.69;;;6.56;97.01
57562;BME280;43397;51.530;5.974;2023-01-27T05:33:52;102130.75;;;6.36;97.97
57562;BME280;43397;51.530;5.974;2023-01-27T05:36:20;102132.22;;;6.27;97.45
57562;BME280;43397;51.530;5.974;2023-01-27T05:38:46;102134.22;;;6.64;95.87
57562;BME280;43397;51.530;5.974;2023-01-27T05:41:14;102138.69;;;6.67;95.21
57562;BME280;43397;51.530;5.974;2023-01-27T05:43:42;102127.47;;;6.75;94.67
57562;BME280;43397;51.530;5.974;2023-01-27T05:46:09;102131.50;;;6.63;96.15
57562;BME280;43397;51.530;5.974;2023-01-27T05:48:37;102130.63;;;6.62;96.09
57562;BME280;43397;51.530;5.974;2023-01-27T05:51:05;102129.44;;;6.52;96.80
57562;BME280;43397;51.530;5.974;2023-01-27T05:53:31;102127.81;;;6.56;96.26
57562;BME280;43397;51.530;5.974;2023-01-27T05:55:58;102131.31;;;6.87;94.58
57562;BME280;43397;51.530;5.974;2023-01-27T05:58:23;102139.34;;;6.59;95.65
57562;BME280;43397;51.530;5.974;2023-01-27T06:00:50;102134.34;;;6.69;95.50
57562;BME280;43397;51.530;5.974;2023-01-27T06:03:16;102141.44;;;6.71;95.56
57562;BME280;43397;51.530;5.974;2023-01-27T06:05:50;102138.06;;;6.77;94.83
57562;BME280;43397;51.530;5.974;2023-01-27T06:08:18;102148.91;;;6.86;94.56
57562;BME280;43397;51.530;5.974;2023-01-27T06:10:44;102138.03;;;6.75;95.23
57562;BME280;43397;51.530;5.974;2023-01-27T06:13:09;102154.16;;;6.85;93.89
57562;BME280;43397;51.530;5.974;2023-01-27T06:15:35;102148.50;;;6.72;95.00
57562;BME280;43397;51.530;5.974;2023-01-27T06:18:01;102144.41;;;6.84;94.62
57562;BME280;43397;51.530;5.974;2023-01-27T06:20:26;102153.50;;;6.93;94.87
57562;BME280;43397;51.530;5.974;2023-01-27T06:22:52;102149.44;;;6.73;95.34
57562;BME280;43397;51.530;5.974;2023-01-27T06:25:19;102150.50;;;6.49;95.77
57562;BME280;43397;51.530;5.974;2023-01-27T06:27:45;102157.38;;;7.06;94.10
57562;BME280;43397;51.530;5.974;2023-01-27T06:30:12;102164.34;;;6.72;94.51
57562;BME280;43397;51.530;5.974;2023-01-27T06:32:37;102166.19;;;6.75;94.00
57562;BME280;43397;51.530;5.974;2023-01-27T06:35:04;102158.91;;;6.66;95.16
57562;BME280;43397;51.530;5.974;2023-01-27T06:37:30;102163.47;;;6.42;95.23
57562;BME280;43397;51.530;5.974;2023-01-27T06:39:56;102167.13;;;6.77;94.58
57562;BME280;43397;51.530;5.974;2023-01-27T06:42:23;102172.28;;;6.72;94.54
57562;BME280;43397;51.530;5.974;2023-01-27T06:44:48;102161.31;;;6.89;93.47
57562;BME280;43397;51.530;5.974;2023-01-27T06:47:14;102166.97;;;6.71;94.74
57562;BME280;43397;51.530;5.974;2023-01-27T06:49:40;102165.72;;;6.90;93.19
57562;BME280;43397;51.530;5.974;2023-01-27T06:52:06;102168.25;;;7.17;92.17
57562;BME280;43397;51.530;5.974;2023-01-27T06:54:31;102170.00;;;6.85;93.15
57562;BME280;43397;51.530;5.974;2023-01-27T06:56:57;102179.19;;;6.67;94.44
57562;BME280;43397;51.530;5.974;2023-01-27T06:59:24;102177.69;;;6.77;94.17
57562;BME280;43397;51.530;5.974;2023-01-27T07:01:50;102174.53;;;6.58;94.15
57562;BME280;43397;51.530;5.974;2023-01-27T07:04:15;102184.91;;;6.83;92.89
57562;BME280;43397;51.530;5.974;2023-01-27T07:06:41;102177.59;;;7.04;92.63
57562;BME280;43397;51.530;5.974;2023-01-27T07:09:07;102176.84;;;7.10;92.14
57562;BME280;43397;51.530;5.974;2023-01-27T07:11:32;102180.50;;;6.82;93.13
57562;BME280;43397;51.530;5.974;2023-01-27T07:13:58;102183.41;;;6.92;92.62
57562;BME280;43397;51.530;5.974;2023-01-27T07:16:25;102187.56;;;6.83;92.91
57562;BME280;43397;51.530;5.974;2023-01-27T07:18:51;102191.00;;;7.10;92.13
57562;BME280;43397;51.530;5.974;2023-01-27T07:21:17;102189.94;;;7.05;91.31
57562;BME280;43397;51.530;5.974;2023-01-27T07:23:42;102182.84;;;6.71;93.71
57562;BME280;43397;51.530;5.974;2023-01-27T07:26:08;102200.16;;;6.91;92.67
57562;BME280;43397;51.530;5.974;2023-01-27T07:28:34;102196.34;;;6.82;92.82
57562;BME280;43397;51.530;5.974;2023-01-27T07:31:00;102200.16;;;6.91;92.26
57562;BME280;43397;51.530;5.974;2023-01-27T07:33:27;102202.00;;;7.27;90.98
57562;BME280;43397;51.530;5.974;2023-01-27T07:35:53;102200.19;;;6.93;92.14
57562;BME280;43397;51.530;5.974;2023-01-27T07:38:19;102201.66;;;6.82;93.03
57562;BME280;43397;51.530;5.974;2023-01-27T07:40:45;102204.91;;;6.73;92.72
57562;BME280;43397;51.530;5.974;2023-01-27T07:43:10;102202.53;;;6.82;93.44
57562;BME280;43397;51.530;5.974;2023-01-27T07:45:36;102211.09;;;6.75;93.62
57562;BME280;43397;51.530;5.974;2023-01-27T07:48:03;102218.63;;;6.61;93.59
57562;BME280;43397;51.530;5.974;2023-01-27T07:50:31;102215.59;;;6.47;95.22
57562;BME280;43397;51.530;5.974;2023-01-27T07:53:01;102227.44;;;6.62;94.78
57562;BME280;43397;51.530;5.974;2023-01-27T07:55:27;102222.72;;;7.10;92.14
57562;BME280;43397;51.530;5.974;2023-01-27T07:57:52;102217.97;;;6.98;92.33
57562;BME280;43397;51.530;5.974;2023-01-27T08:00:19;102225.34;;;7.10;92.08
57562;BME280;43397;51.530;5.974;2023-01-27T08:02:49;102230.59;;;6.78;93.33
57562;BME280;43397;51.530;5.974;2023-01-27T08:05:14;102223.03;;;6.61;94.36
57562;BME280;43397;51.530;5.974;2023-01-27T08:07:41;102222.47;;;6.71;93.15
57562;BME280;43397;51.530;5.974;2023-01-27T08:10:08;102233.34;;;6.82;92.55
57562;BME280;43397;51.530;5.974;2023-01-27T08:12:34;102236.06;;;6.85;91.88
57562;BME280;43397;51.530;5.974;2023-01-27T08:14:59;102231.22;;;6.70;93.40
57562;BME280;43397;51.530;5.974;2023-01-27T08:17:25;102227.44;;;6.62;94.18
57562;BME280;43397;51.530;5.974;2023-01-27T08:19:51;102232.25;;;6.75;93.20
57562;BME280;43397;51.530;5.974;2023-01-27T08:22:17;102225.06;;;7.01;92.49
57562;BME280;43397;51.530;5.974;2023-01-27T08:24:44;102226.88;;;7.02;91.69
57562;BME280;43397;51.530;5.974;2023-01-27T08:27:10;102229.59;;;7.04;91.78
57562;BME280;43397;51.530;5.974;2023-01-27T08:29:36;102228.50;;;6.97;91.15
57562;BME280;43397;51.530;5.974;2023-01-27T08:32:01;102228.66;;;7.03;91.38
57562;BME280;43397;51.530;5.974;2023-01-27T08:34:27;102234.88;;;7.05;91.56
57562;BME280;43397;51.530;5.974;2023-01-27T08:36:53;102225.63;;;6.89;92.68
57562;BME280;43397;51.530;5.974;2023-01-27T08:39:19;102233.56;;;6.89;92.13
57562;BME280;43397;51.530;5.974;2023-01-27T08:41:46;102233.47;;;7.16;91.49
57562;BME280;43397;51.530;5.974;2023-01-27T08:44:12;102233.19;;;7.39;90.37
57562;BME280;43397;51.530;5.974;2023-01-27T08:46:37;102231.47;;;7.08;91.08
57562;BME280;43397;51.530;5.974;2023-01-27T08:49:03;102241.84;;;7.02;90.90
57562;BME280;43397;51.530;5.974;2023-01-27T08:51:29;102244.88;;;6.85;91.38
57562;BME280;43397;51.530;5.974;2023-01-27T08:53:55;102237.38;;;6.99;91.22
57562;BME280;43397;51.530;5.974;2023-01-27T08:56:21;102251.78;;;6.80;90.68
57562;BME280;43397;51.530;5.974;2023-01-27T08:58:49;102253.72;;;6.86;91.00
57562;BME280;43397;51.530;5.974;2023-01-27T09:01:15;102253.44;;;7.07;91.73
57562;BME280;43397;51.530;5.974;2023-01-27T09:03:41;102252.94;;;7.20;90.28
57562;BME280;43397;51.530;5.974;2023-01-27T09:06:07;102247.56;;;7.17;90.57
57562;BME280;43397;51.530;5.974;2023-01-27T09:08:34;102251.44;;;6.98;90.94
57562;BME280;43397;51.530;5.974;2023-01-27T09:11:06;102256.72;;;6.98;90.61
57562;BME280;43397;51.530;5.974;2023-01-27T09:13:31;102259.94;;;7.18;90.46
57562;BME280;43397;51.530;5.974;2023-01-27T09:15:58;102262.63;;;6.89;91.66
57562;BME280;43397;51.530;5.974;2023-01-27T09:18:24;102272.66;;;7.01;90.49
57562;BME280;43397;51.530;5.974;2023-01-27T09:20:50;102269.94;;;6.98;90.56
57562;BME280;43397;51.530;5.974;2023-01-27T09:23:15;102270.94;;;7.02;92.14
57562;BME280;43397;51.530;5.974;2023-01-27T09:25:41;102268.41;;;7.36;89.08
57562;BME280;43397;51.530;5.974;2023-01-27T09:28:07;102264.94;;;7.39;90.70
57562;BME280;43397;51.530;5.974;2023-01-27T09:30:33;102269.97;;;7.30;90.11
57562;BME280;43397;51.530;5.974;2023-01-27T09:33:00;102274.75;;;7.45;89.63
57562;BME280;43397;51.530;5.974;2023-01-27T09:35:30;102275.16;;;7.27;90.08
57562;BME280;43397;51.530;5.974;2023-01-27T09:37:59;102279.88;;;7.37;90.86
57562;BME280;43397;51.530;5.974;2023-01-27T09:40:29;102283.06;;;6.95;91.05
57562;BME280;43397;51.530;5.974;2023-01-27T09:43:20;102284.34;;;7.09;90.56
57562;BME280;43397;51.530;5.974;2023-01-27T09:46:12;102275.97;;;7.24;91.60
57562;BME280;43397;51.530;5.974;2023-01-27T09:48:54;102278.53;;;7.21;90.84
57562;BME280;43397;51.530;5.974;2023-01-27T09:51:35;102292.97;;;7.02;90.16
57562;BME280;43397;51.530;5.974;2023-01-27T09:54:20;102289.94;;;7.50;89.33
57562;BME280;43397;51.530;5.974;2023-01-27T09:56:57;102288.13;;;7.17;90.32
57562;BME280;43397;51.530;5.974;2023-01-27T09:59:36;102298.44;;;7.08;91.88
57562;BME280;43397;51.530;5.974;2023-01-27T10:02:11;102298.47;;;7.10;90.81
57562;BME280;43397;51.530;5.974;2023-01-27T10:04:51;102291.03;;;7.58;90.50
57562;BME280;43397;51.530;5.974;2023-01-27T10:07:44;102300.44;;;7.47;87.91
57562;BME280;43397;51.530;5.974;2023-01-27T10:10:34;102300.78;;;7.28;88.43
57562;BME280;43397;51.530;5.974;2023-01-27T10:13:18;102306.06;;;7.29;88.13
57562;BME280;43397;51.530;5.974;2023-01-27T10:15:57;102286.34;;;7.16;88.55
57562;BME280;43397;51.530;5.974;2023-01-27T10:18:37;102292.19;;;8.01;87.72
57562;BME280;43397;51.530;5.974;2023-01-27T10:21:13;102283.69;;;7.80;86.84
57562;BME280;43397;51.530;5.974;2023-01-27T10:23:46;102292.91;;;7.62;87.20
57562;BME280;43397;51.530;5.974;2023-01-27T10:26:22;102292.19;;;8.01;84.99
57562;BME280;43397;51.530;5.974;2023-01-27T10:28:50;102289.09;;;8.19;86.11
57562;BME280;43397;51.530;5.974;2023-01-27T10:31:21;102286.91;;;8.39;84.03
57562;BME280;43397;51.530;5.974;2023-01-27T10:33:51;102281.91;;;8.15;84.86
57562;BME280;43397;51.530;5.974;2023-01-27T10:36:25;102274.53;;;8.02;86.48
57562;BME280;43397;51.530;5.974;2023-01-27T10:39:02;102281.22;;;7.88;86.12
57562;BME280;43397;51.530;5.974;2023-01-27T10:41:42;102282.34;;;7.62;87.71
57562;BME280;43397;51.530;5.974;2023-01-27T10:44:23;102275.09;;;7.90;87.91
57562;BME280;43397;51.530;5.974;2023-01-27T10:46:57;102276.50;;;8.11;85.87
57562;BME280;43397;51.530;5.974;2023-01-27T10:49:29;102274.09;;;8.58;86.00
57562;BME280;43397;51.530;5.974;2023-01-27T10:52:01;102273.75;;;8.08;86.03
57562;BME280;43397;51.530;5.974;2023-01-27T10:54:33;102271.22;;;8.11;87.88
57562;BME280;43397;51.530;5.974;2023-01-27T10:57:04;102270.75;;;8.29;86.68
57562;BME280;43397;51.530;5.974;2023-01-27T10:59:37;102272.31;;;8.19;86.29
57562;BME280;43397;51.530;5.974;2023-01-27T11:02:13;102267.31;;;7.96;87.72
57562;BME280;43397;51.530;5.974;2023-01-27T11:04:45;102273.97;;;7.47;87.34
57562;BME280;43397;51.530;5.974;2023-01-27T11:07:15;102270.09;;;7.68;87.28
57562;BME280;43397;51.530;5.974;2023-01-27T11:09:47;102277.06;;;7.97;87.71
57562;BME280;43397;51.530;5.974;2023-01-27T11:12:14;102276.91;;;7.91;87.23
57562;BME280;43397;51.530;5.974;2023-01-27T11:14:44;102278.41;;;7.81;87.28
57562;BME280;43397;51.530;5.974;2023-01-27T11:17:14;102268.47;;;8.08;86.37
57562;BME280;43397;51.530;5.974;2023-01-27T11:19:47;102269.44;;;8.11;87.77
57562;BME280;43397;51.530;5.974;2023-01-27T11:22:20;102268.34;;;8.01;85.84
57562;BME280;43397;51.530;5.974;2023-01-27T11:24:51;102267.81;;;7.81;87.25
57562;BME280;43397;51.530;5.974;2023-01-27T11:27:30;102260.97;;;7.90;86.56
57562;BME280;43397;51.530;5.974;2023-01-27T11:30:00;102268.16;;;8.32;83.48
57562;BME280;43397;51.530;5.974;2023-01-27T11:32:35;102260.66;;;8.47;84.07
57562;BME280;43397;51.530;5.974;2023-01-27T11:35:07;102267.78;;;8.91;82.24
57562;BME280;43397;51.530;5.974;2023-01-27T11:37:37;102247.78;;;8.65;83.07
57562;BME280;43397;51.530;5.974;2023-01-27T11:40:03;102256.38;;;8.54;83.97
57562;BME280;43397;51.530;5.974;2023-01-27T11:42:37;102233.00;;;8.37;84.09
57562;BME280;43397;51.530;5.974;2023-01-27T11:45:03;102255.00;;;7.98;85.85
57562;BME280;43397;51.530;5.974;2023-01-27T11:47:32;102259.31;;;8.30;84.76
57562;BME280;43397;51.530;5.974;2023-01-27T11:50:01;102262.00;;;7.95;83.55
57562;BME280;43397;51.530;5.974;2023-01-27T11:52:28;102262.81;;;8.29;83.19
57562;BME280;43397;51.530;5.974;2023-01-27T11:55:00;102252.25;;;8.30;84.93
57562;BME280;43397;51.530;5.974;2023-01-27T11:57:28;102258.13;;;8.17;84.68
57562;BME280;43397;51.530;5.974;2023-01-27T11:59:59;102254.28;;;8.06;83.54
57562;BME280;43397;51.530;5.974;2023-01-27T12:02:32;102249.94;;;8.08;85.24
57562;BME280;43397;51.530;5.974;2023-01-27T12:05:03;102250.53;;;8.32;85.42
57562;BME280;43397;51.530;5.974;2023-01-27T12:07:45;102247.84;;;8.31;84.93
57562;BME280;43397;51.530;5.974;2023-01-27T12:10:25;102251.75;;;8.84;82.34
57562;BME280;43397;51.530;5.974;2023-01-27T12:12:51;102247.44;;;8.50;82.20
57562;BME280;43397;51.530;5.974;2023-01-27T12:15:17;102244.31;;;8.32;82.68
57562;BME280;43397;51.530;5.974;2023-01-27T12:17:46;102246.56;;;8.50;81.70
57562;BME280;43397;51.530;5.974;2023-01-27T12:20:23;102238.41;;;8.06;82.63
57562;BME280;43397;51.530;5.974;2023-01-27T12:22:52;102237.13;;;8.62;82.75
57562;BME280;43397;51.530;5.974;2023-01-27T12:25:23;102247.38;;;8.88;82.27
57562;BME280;43397;51.530;5.974;2023-01-27T12:27:52;102241.25;;;8.50;81.94
57562;BME280;43397;51.530;5.974;2023-01-27T12:30:21;102237.81;;;8.54;83.73
57562;BME280;43397;51.530;5.974;2023-01-27T12:32:48;102233.78;;;8.33;83.22
57562;BME280;43397;51.530;5.974;2023-01-27T12:35:20;102242.13;;;8.12;83.41
57562;BME280;43397;51.530;5.974;2023-01-27T12:37:48;102237.47;;;7.67;86.25
57562;BME280;43397;51.530;5.974;2023-01-27T12:40:18;102234.31;;;8.18;85.16
57562;BME280;43397;51.530;5.974;2023-01-27T12:42:48;102237.47;;;8.02;85.64
57562;BME280;43397;51.530;5.974;2023-01-27T12:45:21;102229.59;;;7.70;87.77
57562;BME280;43397;51.530;5.974;2023-01-27T12:47:55;102237.09;;;7.88;87.11
57562;BME280;43397;51.530;5.974;2023-01-27T12:50:24;102226.34;;;7.80;86.69
57562;BME280;43397;51.530;5.974;2023-01-27T12:53:02;102233.28;;;7.77;87.22
57562;BME280;43397;51.530;5.974;2023-01-27T12:55:30;102226.56;;;7.55;86.81
57562;BME280;43397;51.530;5.974;2023-01-27T12:57:57;102223.69;;;7.80;84.23
57562;BME280;43397;51.530;5.974;2023-01-27T13:00:24;102223.84;;;7.87;85.22
57562;BME280;43397;51.530;5.974;2023-01-27T13:02:50;102220.69;;;8.01;84.79
57562;BME280;43397;51.530;5.974;2023-01-27T13:05:17;102225.66;;;7.89;84.67